Terminal Aerodrome Forecast
Issued by NWS

Home | Current Version | Previous Version | Text Only | Print | Product List | Glossary Off
Versions: 1 2 3 4 5 6 7 8 9 10 11 12 13 14 15 16 17 18

000
FTUS43 KTOP 252331
TAFMHK
TAF
KMHK 252331Z 2600/2624 35009KT P6SM BKN040
     FM260200 33013KT P6SM VCSH OVC025
     FM260400 34013KT P6SM OVC015
     FM261400 33014G21KT P6SM OVC025
     FM261800 34014G21KT P6SM OVC030=

USA.gov is the U.S. government's official web portal to all federal, state and local government web resources and services.